Time;durP1;ratioP1;P1;durP2;ratioP2;P2;SDS_P1;SDS_P2;PMS_P1;PMS_P2;Temp;Humidity;BMP_temperature;BMP_pressure;BME280_temperature;BME280_humidity;BME280_pressure;Samples;Min_cycle;Max_cycle;Signal;HPM_P1;HPM_P2
2023/04/09 00:02:01;;;;;;;43.85;30.20;;;15.70;74.30;;;;;;4171567;28;20060;-63
2023/04/09 00:04:42;;;;;;;48.40;32.33;;;15.80;73.50;;;;;;4159250;28;20048;-63
2023/04/09 00:07:25;;;;;;;47.00;30.88;;;15.70;73.50;;;;;;4159254;28;20060;-63
2023/04/09 00:10:06;;;;;;;49.33;30.60;;;15.70;73.40;;;;;;4164291;28;20569;-63
2023/04/09 00:12:47;;;;;;;51.70;30.70;;;15.70;73.30;;;;;;4175708;28;20594;-63
2023/04/09 00:15:28;;;;;;;44.80;29.83;;;15.70;73.00;;;;;;4175534;28;20187;-63
2023/04/09 00:18:11;;;;;;;42.92;29.80;;;15.70;73.10;;;;;;4172592;28;20296;-63
2023/04/09 00:20:52;;;;;;;44.88;29.73;;;15.70;73.10;;;;;;4175722;28;20130;-63
2023/04/09 00:23:34;;;;;;;50.88;31.67;;;15.70;73.20;;;;;;4175531;28;20052;-63
2023/04/09 00:26:15;;;;;;;47.63;31.60;;;15.70;73.40;;;;;;4163296;28;20063;-63
2023/04/09 00:28:56;;;;;;;47.17;31.25;;;15.70;73.40;;;;;;4174037;28;20048;-64
2023/04/09 00:31:37;;;;;;;47.37;30.93;;;15.70;73.20;;;;;;4174060;28;20059;-63
2023/04/09 00:34:18;;;;;;;49.60;31.02;;;15.70;73.10;;;;;;4174020;28;20298;-64
2023/04/09 00:36:59;;;;;;;45.05;30.65;;;15.60;73.10;;;;;;4171467;28;20060;-63
2023/04/09 00:39:41;;;;;;;50.42;31.58;;;15.70;73.20;;;;;;4173875;28;20549;-63
2023/04/09 00:42:22;;;;;;;49.15;30.90;;;15.60;73.20;;;;;;4174020;28;20047;-62
2023/04/09 00:45:04;;;;;;;43.13;29.10;;;15.60;73.10;;;;;;4161930;28;20198;-63
2023/04/09 00:47:45;;;;;;;46.00;31.27;;;15.60;73.10;;;;;;4174664;28;20130;-63
2023/04/09 00:50:26;;;;;;;46.13;29.60;;;15.60;73.10;;;;;;4175244;28;20048;-63
2023/04/09 00:53:08;;;;;;;45.78;31.30;;;15.60;73.30;;;;;;4158872;28;20056;-64
2023/04/09 00:55:50;;;;;;;45.28;30.33;;;15.60;73.30;;;;;;4158776;28;20784;-63
2023/04/09 00:58:31;;;;;;;45.95;30.13;;;15.60;73.20;;;;;;4157551;28;20417;-63
2023/04/09 01:01:12;;;;;;;47.70;29.57;;;15.60;73.30;;;;;;4173206;28;20044;-63
2023/04/09 01:03:53;;;;;;;46.03;30.10;;;15.60;73.30;;;;;;4173279;28;20294;-63
2023/04/09 01:06:42;;;;;;;43.78;28.15;;;15.60;73.40;;;;;;4173589;28;20574;-63
2023/04/09 01:09:30;;;;;;;41.72;29.25;;;15.60;73.30;;;;;;4158367;28;20131;-64
2023/04/09 01:12:22;;;;;;;37.72;25.02;;;15.60;73.30;;;;;;4173545;28;20059;-63
2023/04/09 01:15:05;;;;;;;33.95;23.55;;;15.60;73.40;;;;;;4175044;28;20519;-63
2023/04/09 01:17:52;;;;;;;36.38;24.45;;;15.60;73.50;;;;;;4173779;28;20118;-63
2023/04/09 01:20:39;;;;;;;30.55;22.55;;;15.60;73.50;;;;;;4174492;28;20590;-62
2023/04/09 01:23:32;;;;;;;32.72;22.30;;;15.60;73.60;;;;;;4174617;28;20463;-62
2023/04/09 01:26:21;;;;;;;32.90;21.80;;;15.60;73.50;;;;;;4158033;28;20056;-63
2023/04/09 01:29:08;;;;;;;26.50;18.92;;;15.60;73.80;;;;;;4157257;28;20132;-63
2023/04/09 01:31:50;;;;;;;28.63;19.65;;;15.60;73.90;;;;;;4157033;28;20511;-62
2023/04/09 01:34:31;;;;;;;24.55;17.67;;;15.60;74.00;;;;;;4158485;28;20060;-63
2023/04/09 01:37:13;;;;;;;23.52;17.20;;;15.50;73.90;;;;;;4158427;28;20060;-63
2023/04/09 01:39:54;;;;;;;21.35;16.23;;;15.50;73.90;;;;;;4156965;28;20127;-63
2023/04/09 01:42:37;;;;;;;21.17;16.20;;;15.50;73.80;;;;;;4167296;28;20060;-62
2023/04/09 01:45:20;;;;;;;22.92;17.30;;;15.50;74.60;;;;;;4174403;28;20048;-63
2023/04/09 01:48:01;;;;;;;22.52;15.73;;;15.50;73.80;;;;;;4173776;28;20055;-63
2023/04/09 01:50:43;;;;;;;24.05;17.00;;;15.50;74.00;;;;;;4174809;28;20052;-63
2023/04/09 01:53:27;;;;;;;23.63;16.95;;;15.50;73.90;;;;;;4157020;28;20052;-63
2023/04/09 01:56:08;;;;;;;23.95;17.00;;;15.50;73.80;;;;;;4158794;28;20044;-63
2023/04/09 01:58:49;;;;;;;22.92;16.65;;;15.50;73.70;;;;;;4160471;28;20052;-63
2023/04/09 02:01:35;;;;;;;25.77;16.67;;;15.50;73.80;;;;;;4160106;28;20049;-63
2023/04/09 02:04:22;;;;;;;23.40;16.67;;;15.50;73.80;;;;;;4161142;28;20040;-62
2023/04/09 02:07:09;;;;;;;23.60;16.83;;;15.50;73.80;;;;;;4159876;28;20512;-63
2023/04/09 02:09:51;;;;;;;22.98;16.02;;;15.50;73.90;;;;;;4165690;28;20036;-63
2023/04/09 02:12:36;;;;;;;25.33;17.27;;;15.50;74.00;;;;;;4170389;28;20052;-64
2023/04/09 02:15:18;;;;;;;23.00;16.08;;;15.50;74.10;;;;;;4159497;28;20061;-63
2023/04/09 02:18:01;;;;;;;24.85;16.83;;;15.50;73.90;;;;;;4160894;28;20122;-63
2023/04/09 02:20:42;;;;;;;23.20;17.08;;;15.40;73.90;;;;;;4174869;28;20061;-63
2023/04/09 02:23:23;;;;;;;23.65;17.73;;;15.40;74.00;;;;;;4176052;28;20126;-63
2023/04/09 02:26:04;;;;;;;23.92;16.67;;;15.50;74.00;;;;;;4176219;28;20098;-64
2023/04/09 02:28:45;;;;;;;24.20;17.27;;;15.40;74.10;;;;;;4176323;28;20051;-63
2023/04/09 02:31:26;;;;;;;24.38;18.08;;;15.40;74.00;;;;;;4160925;28;20566;-63
2023/04/09 02:34:09;;;;;;;24.40;17.23;;;15.40;74.10;;;;;;4159537;28;20175;-64
2023/04/09 02:36:50;;;;;;;22.02;16.75;;;15.40;74.00;;;;;;4170964;28;20131;-63
2023/04/09 02:39:31;;;;;;;24.52;18.02;;;15.40;74.10;;;;;;4170215;28;20060;-63
2023/04/09 02:42:12;;;;;;;23.73;17.35;;;15.40;74.10;;;;;;4176846;28;20182;-63
2023/04/09 02:44:53;;;;;;;23.23;17.05;;;15.40;74.30;;;;;;4176726;28;20086;-63
2023/04/09 02:47:34;;;;;;;25.45;18.25;;;15.40;74.30;;;;;;4175503;28;20056;-63
2023/04/09 02:50:17;;;;;;;23.77;17.50;;;15.40;74.40;;;;;;4176708;28;20507;-63
2023/04/09 02:53:02;;;;;;;24.55;16.80;;;15.40;74.40;;;;;;4175572;28;20183;-63
2023/04/09 02:55:42;;;;;;;24.23;17.30;;;15.40;74.50;;;;;;4175509;28;20914;-63
2023/04/09 02:58:24;;;;;;;24.05;17.20;;;15.40;74.60;;;;;;4175200;28;20075;-63
2023/04/09 03:01:04;;;;;;;24.05;17.70;;;15.40;74.60;;;;;;4174782;28;20138;-63
2023/04/09 03:03:45;;;;;;;24.77;16.85;;;15.40;74.60;;;;;;4159119;28;20184;-63
2023/04/09 03:06:28;;;;;;;23.50;17.35;;;15.40;74.60;;;;;;4147265;28;20263;-63
2023/04/09 03:09:08;;;;;;;26.58;16.95;;;15.40;74.90;;;;;;4170221;28;20083;-63
2023/04/09 03:11:49;;;;;;;26.45;17.08;;;15.40;74.90;;;;;;4174977;28;20846;-63
2023/04/09 03:14:30;;;;;;;26.30;17.48;;;15.40;74.60;;;;;;4174277;28;20066;-63
2023/04/09 03:17:12;;;;;;;;;;;15.40;74.60;;;;;;4174656;28;20132;-63
2023/04/09 03:19:53;;;;;;;23.80;17.90;;;15.30;74.60;;;;;;4173106;28;20021;-63
2023/04/09 03:22:37;;;;;;;24.23;17.00;;;15.40;75.20;;;;;;4174789;28;20059;-63
2023/04/09 03:25:29;;;;;;;22.10;16.67;;;15.30;74.90;;;;;;4174804;28;20059;-63
2023/04/09 03:28:11;;;;;;;25.05;18.10;;;15.30;75.00;;;;;;4174549;28;20048;-63
2023/04/09 03:30:59;;;;;;;23.98;17.35;;;15.30;74.90;;;;;;4174413;28;20052;-64
2023/04/09 03:33:40;;;;;;;25.48;18.45;;;15.30;75.10;;;;;;4175150;28;20051;-63
2023/04/09 03:36:22;;;;;;;27.90;19.98;;;15.40;75.60;;;;;;4175335;28;20062;-64
2023/04/09 03:39:10;;;;;;;27.40;19.50;;;15.50;75.70;;;;;;4174919;28;20135;-63
2023/04/09 03:41:56;;;;;;;26.20;18.30;;;15.50;75.40;;;;;;4174472;28;20056;-63
2023/04/09 03:44:41;;;;;;;27.83;19.95;;;15.60;75.10;;;;;;4174760;28;20097;-63
2023/04/09 03:47:26;;;;;;;26.90;18.33;;;15.70;74.80;;;;;;4158140;28;20381;-63
2023/04/09 03:50:08;;;;;;;28.08;20.23;;;15.70;74.60;;;;;;4158688;28;20488;-63
2023/04/09 03:53:00;;;;;;;27.83;19.83;;;15.80;74.40;;;;;;4146604;28;20064;-64
2023/04/09 03:55:43;;;;;;;29.25;20.05;;;15.80;74.20;;;;;;4147129;28;20052;-63
2023/04/09 03:58:31;;;;;;;31.48;21.65;;;15.80;74.20;;;;;;4169068;28;20190;-63
2023/04/09 04:01:12;;;;;;;30.00;20.75;;;15.80;74.40;;;;;;4174891;28;20052;-64
2023/04/09 04:04:04;;;;;;;29.50;21.67;;;15.70;75.30;;;;;;4163301;28;20098;-63
2023/04/09 04:06:55;;;;;;;30.30;20.77;;;15.70;74.60;;;;;;4174025;28;20055;-63
2023/04/09 04:09:45;;;;;;;29.48;21.10;;;15.70;74.40;;;;;;4175396;28;20430;-63
2023/04/09 04:12:31;;;;;;;31.65;19.83;;;15.70;74.40;;;;;;4164326;28;20183;-63
2023/04/09 04:15:18;;;;;;;30.55;20.58;;;15.70;74.30;;;;;;4174185;28;20051;-64
2023/04/09 04:18:05;;;;;;;31.55;21.40;;;15.80;74.30;;;;;;4174143;28;20518;-63
2023/04/09 04:21:12;;;;;;;32.45;22.08;;;15.80;74.30;;;;;;4174132;28;20110;-62
2023/04/09 04:23:55;;;;;;;28.08;21.38;;;15.80;74.40;;;;;;4171176;28;20074;-63
2023/04/09 04:26:40;;;;;;;31.95;21.50;;;15.80;74.20;;;;;;4169159;28;20072;-63
2023/04/09 04:29:23;;;;;;;33.35;21.42;;;15.80;74.70;;;;;;4157745;28;20818;-63
2023/04/09 04:32:09;;;;;;;31.88;22.45;;;15.90;74.80;;;;;;4157738;28;20828;-63
2023/04/09 04:34:50;;;;;;;;;;;16.00;74.60;;;;;;4155160;28;20055;-63
2023/04/09 04:37:39;;;;;;;29.30;21.25;;;16.00;74.40;;;;;;4173827;28;19931;-63
2023/04/09 04:40:20;;;;;;;34.97;22.10;;;16.10;74.30;;;;;;4173302;28;20187;-63
2023/04/09 04:43:05;;;;;;;30.98;22.65;;;16.10;74.10;;;;;;4169442;28;20051;-63
2023/04/09 04:45:47;;;;;;;32.92;23.23;;;16.10;73.90;;;;;;4157826;28;20127;-63
2023/04/09 04:48:29;;;;;;;30.67;21.70;;;16.10;73.90;;;;;;4159290;28;20595;-63
2023/04/09 04:51:10;;;;;;;31.92;22.65;;;16.10;73.80;;;;;;4157228;28;20118;-63
2023/04/09 04:53:55;;;;;;;31.63;22.42;;;16.10;73.90;;;;;;4156948;28;20558;-63
2023/04/09 04:56:37;;;;;;;31.92;21.85;;;16.10;74.00;;;;;;4158855;28;20096;-63
2023/04/09 04:59:27;;;;;;;34.13;22.98;;;16.10;74.00;;;;;;4157489;28;20119;-64
2023/04/09 05:02:16;;;;;;;33.15;22.67;;;16.10;74.00;;;;;;4164778;28;20420;-64
2023/04/09 05:05:24;;;;;;;34.45;25.42;;;16.10;73.90;;;;;;4174950;28;20066;-64
2023/04/09 05:08:07;;;;;;;35.65;24.58;;;16.10;74.10;;;;;;4162224;28;20049;-64
2023/04/09 05:10:48;;;;;;;32.90;22.60;;;16.10;74.20;;;;;;4174044;28;20072;-64
2023/04/09 05:13:29;;;;;;;32.90;24.88;;;16.10;74.20;;;;;;4158443;28;20059;-64
2023/04/09 05:16:16;;;;;;;34.08;23.92;;;16.20;74.00;;;;;;4146064;28;20491;-64
2023/04/09 05:19:02;;;;;;;39.08;25.13;;;16.20;74.60;;;;;;4157416;28;20119;-64
2023/04/09 05:21:43;;;;;;;35.63;25.63;;;16.20;73.70;;;;;;4162316;28;20047;-63
2023/04/09 05:24:32;;;;;;;34.63;25.02;;;16.20;73.70;;;;;;4173752;28;20056;-63
2023/04/09 05:27:13;;;;;;;37.53;25.98;;;16.20;73.60;;;;;;4174780;28;20051;-63
2023/04/09 05:29:54;;;;;;;36.85;26.15;;;16.20;73.70;;;;;;4172686;28;20083;-63
2023/04/09 05:32:35;;;;;;;37.83;26.70;;;16.20;73.90;;;;;;4178284;28;20055;-64
2023/04/09 05:35:18;;;;;;;37.88;25.17;;;16.20;73.80;;;;;;4165267;28;20051;-63
2023/04/09 05:38:00;;;;;;;38.67;25.75;;;16.30;73.90;;;;;;4176846;28;20404;-63
2023/04/09 05:40:43;;;;;;;40.17;25.75;;;16.30;74.00;;;;;;4176369;28;20091;-62
2023/04/09 05:43:26;;;;;;;36.63;25.65;;;16.30;73.90;;;;;;4175534;28;20122;-63
2023/04/09 05:46:06;;;;;;;34.30;25.30;;;16.30;73.80;;;;;;4165417;28;20044;-63
2023/04/09 05:48:47;;;;;;;38.13;26.50;;;16.30;73.80;;;;;;4148703;28;20052;-63
2023/04/09 05:51:30;;;;;;;38.42;26.38;;;16.30;73.90;;;;;;4170189;28;20085;-63
2023/04/09 05:54:11;;;;;;;38.25;25.33;;;16.20;73.90;;;;;;4160556;28;20048;-64
2023/04/09 05:56:52;;;;;;;39.13;26.17;;;16.20;74.80;;;;;;4160454;28;20053;-64
2023/04/09 05:59:35;;;;;;;37.50;25.70;;;16.20;73.80;;;;;;4165084;28;20063;-64
2023/04/09 06:02:16;;;;;;;35.70;25.37;;;16.10;73.60;;;;;;4164310;28;20094;-64
2023/04/09 06:04:57;;;;;;;41.72;27.35;;;16.10;73.60;;;;;;4176961;28;20048;-64
2023/04/09 06:07:39;;;;;;;38.03;27.38;;;16.10;74.40;;;;;;4176504;28;20066;-64
2023/04/09 06:10:20;;;;;;;42.95;29.10;;;16.00;75.80;;;;;;4177378;28;20052;-64
2023/04/09 06:13:02;;;;;;;45.85;29.25;;;16.00;76.30;;;;;;4176148;28;20051;-64
2023/04/09 06:15:43;;;;;;;44.15;27.55;;;16.00;76.40;;;;;;4175371;28;20115;-64
2023/04/09 06:18:23;;;;;;;47.17;29.37;;;16.00;76.60;;;;;;4177056;28;20099;-64
2023/04/09 06:21:05;;;;;;;46.85;30.42;;;15.90;77.40;;;;;;4177124;28;20368;-64
2023/04/09 06:23:47;;;;;;;;;;;16.00;78.60;;;;;;4177508;28;20471;-64
2023/04/09 06:26:27;;;;;;;;;;;16.00;78.40;;;;;;4171828;28;19932;-64
2023/04/09 06:29:08;;;;;;;46.25;31.27;;;16.10;78.00;;;;;;4174400;28;19932;-64
2023/04/09 06:31:49;;;;;;;48.67;30.83;;;16.10;77.40;;;;;;4174609;28;20523;-64
2023/04/09 06:34:30;;;;;;;38.45;27.02;;;16.20;76.80;;;;;;4168178;28;20071;-64
2023/04/09 06:37:11;;;;;;;39.05;26.33;;;16.20;76.50;;;;;;4176760;28;20499;-64
2023/04/09 06:39:53;;;;;;;37.50;27.23;;;16.20;77.00;;;;;;4177208;28;20125;-63
2023/04/09 06:42:40;;;;;;;40.08;26.75;;;16.20;75.60;;;;;;4176316;28;20299;-64
2023/04/09 06:45:33;;;;;;;39.85;25.83;;;16.20;75.20;;;;;;4174999;28;20064;-64
2023/04/09 06:48:14;;;;;;;;;;;16.30;74.60;;;;;;4176161;28;20052;-64
2023/04/09 06:50:55;;;;;;;34.47;25.42;;;16.30;74.40;;;;;;4164287;28;19931;-64
2023/04/09 06:53:36;;;;;;;41.00;26.63;;;16.30;74.30;;;;;;4174049;28;20066;-64
2023/04/09 06:56:18;;;;;;;35.75;25.42;;;16.30;74.30;;;;;;4162558;28;20052;-64
2023/04/09 06:58:59;;;;;;;35.95;24.90;;;16.20;74.00;;;;;;4160305;28;20500;-63
2023/04/09 07:01:40;;;;;;;40.60;26.25;;;16.20;73.90;;;;;;4160360;28;20186;-64
2023/04/09 07:04:21;;;;;;;;;;;16.20;73.70;;;;;;4162316;28;20192;-63
2023/04/09 07:07:02;;;;;;;32.33;20.90;;;16.20;74.60;;;;;;4176528;28;20066;-63
2023/04/09 07:09:44;;;;;;;29.63;19.58;;;16.10;73.70;;;;;;4175389;28;20052;-64
2023/04/09 07:12:31;;;;;;;29.15;19.88;;;16.10;73.60;;;;;;4171557;28;20101;-63
2023/04/09 07:15:11;;;;;;;30.48;19.70;;;16.00;73.70;;;;;;4159969;28;20134;-64
2023/04/09 07:17:52;;;;;;;28.10;20.05;;;16.00;74.30;;;;;;4159788;28;20184;-64
2023/04/09 07:20:33;;;;;;;31.45;20.42;;;16.00;75.00;;;;;;4159754;28;20064;-64
2023/04/09 07:23:14;;;;;;;29.45;21.00;;;16.10;74.20;;;;;;4172163;28;20056;-64
2023/04/09 07:25:55;;;;;;;30.48;20.27;;;16.20;73.70;;;;;;4173614;28;20131;-64
2023/04/09 07:28:37;;;;;;;30.38;21.75;;;16.30;73.80;;;;;;4172226;28;20056;-64
2023/04/09 07:31:18;;;;;;;31.50;21.70;;;16.30;73.40;;;;;;4173158;28;20052;-65
2023/04/09 07:33:59;;;;;;;29.15;20.50;;;16.40;74.00;;;;;;4172993;28;20408;-64
2023/04/09 07:36:41;;;;;;;28.95;19.77;;;16.40;72.50;;;;;;4172437;28;20133;-64
2023/04/09 07:39:22;;;;;;;31.77;20.63;;;16.40;72.50;;;;;;4172789;28;20048;-64
2023/04/09 07:42:04;;;;;;;28.88;20.83;;;16.40;72.40;;;;;;4172536;28;20516;-64
2023/04/09 07:44:46;;;;;;;;;;;16.40;72.20;;;;;;4173240;28;20052;-63
2023/04/09 07:47:27;;;;;;;31.65;21.77;;;16.40;72.20;;;;;;4173316;28;19928;-62
2023/04/09 07:50:09;;;;;;;30.65;20.50;;;16.40;72.50;;;;;;4173204;28;20056;-62
2023/04/09 07:52:50;;;;;;;30.90;21.75;;;16.30;71.80;;;;;;4172672;28;20123;-60
2023/04/09 07:55:31;;;;;;;29.48;19.70;;;16.30;72.10;;;;;;4172396;28;20052;-60
2023/04/09 07:58:12;;;;;;;31.13;21.58;;;16.30;71.30;;;;;;4172462;28;20056;-61
2023/04/09 08:00:54;;;;;;;35.30;21.48;;;16.30;71.40;;;;;;4173143;28;20503;-61
2023/04/09 08:03:35;;;;;;;29.65;21.23;;;16.20;71.80;;;;;;4172952;28;20154;-61
2023/04/09 08:06:17;;;;;;;32.60;21.52;;;16.20;71.90;;;;;;4173010;28;20060;-61
2023/04/09 08:08:58;;;;;;;34.35;21.20;;;16.20;71.70;;;;;;4172652;28;20392;-62
2023/04/09 08:11:39;;;;;;;30.92;20.55;;;16.10;71.90;;;;;;4172929;28;20140;-62
2023/04/09 08:14:20;;;;;;;35.47;22.63;;;16.10;73.10;;;;;;4171372;28;20051;-62
2023/04/09 08:17:02;;;;;;;30.92;21.45;;;16.10;74.40;;;;;;4172018;28;20059;-63
2023/04/09 08:19:43;;;;;;;31.50;21.00;;;16.10;74.70;;;;;;4172688;28;20059;-62
2023/04/09 08:22:24;;;;;;;31.45;22.55;;;16.10;74.50;;;;;;4169875;28;20086;-63
2023/04/09 08:25:06;;;;;;;32.55;22.05;;;16.10;74.60;;;;;;4172207;28;20052;-66
2023/04/09 08:27:47;;;;;;;31.65;20.80;;;16.10;74.80;;;;;;4171144;28;20056;-65
2023/04/09 08:30:28;;;;;;;29.00;21.10;;;16.10;75.40;;;;;;4172826;28;20056;-64
2023/04/09 08:33:10;;;;;;;30.65;20.85;;;16.10;75.20;;;;;;4171764;28;20056;-64
2023/04/09 08:35:51;;;;;;;30.52;21.08;;;16.00;74.70;;;;;;4172511;28;20059;-64
2023/04/09 08:38:32;;;;;;;27.13;18.88;;;16.10;75.70;;;;;;4172364;28;20069;-64
2023/04/09 08:41:18;;;;;;;33.47;21.58;;;16.40;75.60;;;;;;4172521;28;20527;-64
2023/04/09 08:43:59;;;;;;;29.48;21.17;;;16.80;73.80;;;;;;4171311;28;20060;-65
2023/04/09 08:46:40;;;;;;;27.63;20.08;;;17.40;71.20;;;;;;4172410;28;20060;-68
2023/04/09 08:49:23;;;;;;;28.08;19.00;;;18.00;68.90;;;;;;4172089;28;20105;-68
2023/04/09 08:52:03;;;;;;;25.45;17.42;;;18.50;65.70;;;;;;4172705;28;20064;-65
2023/04/09 08:54:45;;;;;;;28.73;20.63;;;18.90;64.30;;;;;;4171943;28;20047;-66
2023/04/09 08:57:27;;;;;;;29.48;20.52;;;19.30;62.70;;;;;;4171387;28;20048;-66
2023/04/09 09:00:08;;;;;;;25.05;18.95;;;19.70;61.00;;;;;;4171090;28;20415;-66
2023/04/09 09:03:03;;;;;;;26.60;19.38;;;19.90;59.50;;;;;;4171885;28;20134;-65
2023/04/09 09:05:46;;;;;;;26.73;19.85;;;19.90;59.10;;;;;;4183057;28;20197;-66
2023/04/09 09:08:29;;;;;;;26.23;19.40;;;19.90;59.60;;;;;;4174013;28;20067;-65
2023/04/09 09:11:10;;;;;;;26.65;20.15;;;19.80;59.40;;;;;;4175459;28;20087;-66
2023/04/09 09:13:57;;;;;;;27.45;20.13;;;19.70;59.90;;;;;;4174832;28;20095;-65
2023/04/09 09:16:41;;;;;;;27.50;20.98;;;19.60;59.80;;;;;;4185515;28;20060;-66
2023/04/09 09:19:30;;;;;;;29.77;20.50;;;19.60;60.20;;;;;;4173937;28;20052;-67
2023/04/09 09:22:13;;;;;;;27.40;20.02;;;19.50;59.80;;;;;;4173652;28;20055;-67
2023/04/09 09:24:54;;;;;;;28.17;21.20;;;19.50;60.00;;;;;;4175063;28;20052;-67
2023/04/09 09:27:38;;;;;;;25.23;19.35;;;19.40;59.60;;;;;;4174884;28;20052;-66
2023/04/09 09:30:23;;;;;;;25.95;19.63;;;19.50;59.60;;;;;;4175442;28;20056;-66
2023/04/09 09:33:06;;;;;;;25.70;19.02;;;19.50;59.60;;;;;;4174684;28;20048;-67
2023/04/09 09:35:49;;;;;;;28.05;20.42;;;19.50;59.60;;;;;;4175197;28;20056;-67
2023/04/09 09:38:32;;;;;;;27.00;18.25;;;19.40;59.70;;;;;;4175568;28;20071;-67
2023/04/09 09:41:17;;;;;;;28.13;19.73;;;19.30;59.80;;;;;;4175261;28;20120;-66
2023/04/09 09:43:57;;;;;;;27.40;21.95;;;19.20;60.00;;;;;;4175159;28;20506;-66
2023/04/09 09:46:41;;;;;;;30.08;20.38;;;19.20;60.30;;;;;;4174552;28;20063;-66
2023/04/09 09:49:22;;;;;;;29.40;20.85;;;19.20;59.90;;;;;;4162429;28;20503;-66
2023/04/09 09:52:06;;;;;;;28.43;21.03;;;19.20;59.90;;;;;;4174088;28;20218;-65
2023/04/09 09:54:52;;;;;;;26.30;19.83;;;19.20;59.70;;;;;;4174818;28;20595;-66
2023/04/09 09:57:36;;;;;;;25.60;19.48;;;19.10;59.40;;;;;;4174688;28;20190;-66
2023/04/09 10:00:17;;;;;;;27.00;21.00;;;19.00;59.50;;;;;;4174582;28;20056;-65
2023/04/09 10:03:04;;;;;;;28.00;21.58;;;18.90;59.40;;;;;;4174729;28;20052;-67
2023/04/09 10:05:45;;;;;;;29.02;22.33;;;18.80;59.60;;;;;;4174452;28;20067;-65
2023/04/09 10:08:28;;;;;;;29.67;21.35;;;18.80;60.40;;;;;;4174634;28;20044;-65
2023/04/09 10:11:11;;;;;;;27.17;21.23;;;18.90;60.60;;;;;;4174637;28;20055;-65
2023/04/09 10:13:56;;;;;;;31.85;21.33;;;18.90;60.20;;;;;;4173027;28;20476;-66
2023/04/09 10:16:38;;;;;;;25.63;19.15;;;18.90;60.40;;;;;;4173098;28;20055;-65
2023/04/09 10:19:21;;;;;;;26.80;20.75;;;18.90;60.50;;;;;;4174138;28;20052;-65
2023/04/09 10:22:05;;;;;;;29.23;21.00;;;18.90;60.00;;;;;;4174378;28;20056;-66
2023/04/09 10:24:47;;;;;;;26.80;19.73;;;18.80;60.30;;;;;;4173144;28;20056;-66
2023/04/09 10:27:29;;;;;;;;;;;18.80;60.90;;;;;;4174786;28;20083;-66
2023/04/09 10:30:09;;;;;;;28.75;20.98;;;18.70;61.40;;;;;;4174391;28;20347;-66
2023/04/09 10:32:51;;;;;;;27.38;21.13;;;18.70;60.90;;;;;;4174428;28;20174;-66
2023/04/09 10:35:32;;;;;;;28.98;20.05;;;18.60;60.80;;;;;;4174121;28;20056;-66
2023/04/09 10:38:14;;;;;;;27.55;20.60;;;18.50;60.90;;;;;;4174505;28;20064;-66
2023/04/09 10:40:56;;;;;;;28.98;19.35;;;18.40;61.00;;;;;;4173759;28;20059;-66
2023/04/09 10:43:38;;;;;;;;;;;18.40;61.50;;;;;;4173398;28;20163;-66
2023/04/09 10:46:27;;;;;;;24.88;18.83;;;18.30;62.20;;;;;;4174072;28;19931;-66
2023/04/09 10:49:10;;;;;;;26.92;19.05;;;18.30;62.60;;;;;;4174344;28;20052;-66
2023/04/09 10:51:52;;;;;;;26.27;20.15;;;18.30;63.20;;;;;;4173677;28;20040;-66
2023/04/09 10:54:51;;;;;;;28.80;19.95;;;18.30;63.20;;;;;;4173794;28;20072;-66
2023/04/09 10:57:32;;;;;;;28.67;20.75;;;18.20;62.30;;;;;;4174001;28;20143;-66
2023/04/09 11:00:15;;;;;;;26.00;17.92;;;18.20;62.70;;;;;;4174463;28;20052;-66
2023/04/09 11:03:13;;;;;;;28.02;19.80;;;18.20;63.00;;;;;;4174339;28;20150;-67
2023/04/09 11:06:04;;;;;;;26.80;20.25;;;18.10;62.40;;;;;;4173815;28;20051;-66
2023/04/09 11:08:47;;;;;;;;;;;18.10;62.60;;;;;;4174520;28;20063;-66
2023/04/09 11:11:28;;;;;;;31.73;22.27;;;18.10;63.20;;;;;;4174050;28;20090;-66
2023/04/09 11:14:08;;;;;;;25.13;19.63;;;18.00;63.30;;;;;;4173749;28;20052;-66
2023/04/09 11:16:51;;;;;;;27.02;20.42;;;18.00;63.00;;;;;;4173680;28;20056;-66
2023/04/09 11:19:33;;;;;;;29.58;21.58;;;18.00;62.70;;;;;;4172450;28;20404;-66
2023/04/09 11:22:15;;;;;;;27.80;19.45;;;17.90;63.20;;;;;;4173350;28;20492;-66
2023/04/09 11:24:56;;;;;;;28.17;20.13;;;17.90;63.50;;;;;;4172888;28;20060;-66
2023/04/09 11:27:38;;;;;;;24.17;18.48;;;17.90;63.50;;;;;;4173491;28;20044;-66
2023/04/09 11:30:20;;;;;;;26.50;19.55;;;17.90;63.60;;;;;;4173610;28;20056;-66
2023/04/09 11:33:02;;;;;;;25.08;18.92;;;17.90;63.60;;;;;;4173781;28;20760;-66
2023/04/09 11:35:43;;;;;;;28.40;20.08;;;17.90;63.50;;;;;;4172772;28;20141;-66
2023/04/09 11:38:24;;;;;;;24.50;18.80;;;18.00;63.30;;;;;;4173323;28;20044;-66
2023/04/09 11:41:05;;;;;;;24.73;19.02;;;18.00;63.40;;;;;;4172769;28;20060;-67
2023/04/09 11:43:46;;;;;;;24.53;19.03;;;18.00;63.60;;;;;;4173878;28;20380;-66
2023/04/09 11:46:28;;;;;;;24.42;18.98;;;18.00;64.00;;;;;;4172759;28;20656;-66
2023/04/09 11:49:10;;;;;;;;;;;18.00;63.40;;;;;;4174008;28;20056;-66
2023/04/09 11:51:51;;;;;;;24.08;17.45;;;18.00;63.40;;;;;;4173533;28;19932;-66
2023/04/09 11:54:32;;;;;;;23.05;17.30;;;18.10;64.10;;;;;;4173590;28;20068;-66
2023/04/09 11:57:13;;;;;;;24.23;18.27;;;18.10;64.00;;;;;;4172593;28;20056;-66
2023/04/09 11:59:54;;;;;;;27.65;18.65;;;18.10;64.90;;;;;;4173209;28;20048;-66
2023/04/09 12:02:38;;;;;;;23.42;17.38;;;18.10;63.60;;;;;;4172918;28;20105;-66
2023/04/09 12:05:24;;;;;;;24.80;18.75;;;18.00;63.00;;;;;;4172890;28;20060;-66
2023/04/09 12:08:08;;;;;;;22.48;17.13;;;18.10;62.90;;;;;;4183263;28;20497;-66
2023/04/09 12:10:49;;;;;;;21.73;16.35;;;18.10;62.70;;;;;;4173048;28;20060;-66
2023/04/09 12:13:33;;;;;;;22.00;14.95;;;18.00;62.10;;;;;;4166220;28;20152;-63
2023/04/09 12:16:19;;;;;;;16.80;12.70;;;18.00;62.70;;;;;;4173908;28;20052;-63
2023/04/09 12:19:05;;;;;;;18.20;13.65;;;18.00;62.70;;;;;;4170020;28;20040;-62
2023/04/09 12:21:48;;;;;;;19.85;14.07;;;18.00;62.70;;;;;;4174991;28;20875;-68
2023/04/09 12:24:29;;;;;;;22.10;16.77;;;18.00;62.90;;;;;;4175155;28;20121;-66
2023/04/09 12:27:10;;;;;;;23.02;17.52;;;18.00;62.90;;;;;;4173459;28;20087;-66
2023/04/09 12:29:51;;;;;;;21.60;16.83;;;18.00;62.90;;;;;;4168213;28;20766;-67
2023/04/09 12:32:32;;;;;;;22.23;17.33;;;17.90;62.60;;;;;;4158296;28;20307;-68
2023/04/09 12:35:14;;;;;;;24.38;17.92;;;17.90;62.70;;;;;;4169422;28;20052;-68
2023/04/09 12:37:58;;;;;;;22.88;17.67;;;17.90;62.80;;;;;;4174979;28;20130;-68
2023/04/09 12:40:39;;;;;;;22.98;17.33;;;17.90;62.80;;;;;;4161974;28;20447;-69
2023/04/09 12:43:20;;;;;;;22.60;16.35;;;17.90;62.90;;;;;;4174686;28;20142;-64
2023/04/09 12:46:01;;;;;;;25.05;18.17;;;17.90;63.10;;;;;;4157931;28;20423;-66
2023/04/09 12:48:42;;;;;;;23.20;16.27;;;17.90;63.20;;;;;;4166034;28;20163;-64
2023/04/09 12:51:24;;;;;;;19.83;15.82;;;17.80;62.70;;;;;;4163711;28;20056;-64
2023/04/09 12:54:06;;;;;;;20.40;15.13;;;17.80;63.10;;;;;;4173323;28;20047;-63
2023/04/09 12:56:48;;;;;;;22.17;15.82;;;17.80;63.00;;;;;;4174010;28;20044;-63
2023/04/09 12:59:29;;;;;;;20.65;15.13;;;17.80;63.30;;;;;;4174281;28;20090;-66
2023/04/09 13:02:11;;;;;;;19.35;15.45;;;17.80;63.10;;;;;;4173889;28;20259;-71
2023/04/09 13:04:52;;;;;;;16.67;13.68;;;17.80;63.10;;;;;;4174139;28;20408;-67
2023/04/09 13:07:33;;;;;;;17.30;13.05;;;17.80;63.30;;;;;;4172381;28;20515;-68
2023/04/09 13:10:15;;;;;;;19.70;14.13;;;17.80;63.70;;;;;;4170660;28;20044;-65
2023/04/09 13:12:57;;;;;;;19.90;15.50;;;17.80;63.50;;;;;;4158820;28;20151;-68
2023/04/09 13:15:37;;;;;;;17.73;13.60;;;17.80;63.40;;;;;;4160334;28;20068;-72
2023/04/09 13:18:18;;;;;;;19.80;14.20;;;17.80;63.80;;;;;;4173354;28;20396;-74
2023/04/09 13:20:59;;;;;;;;;;;17.80;63.10;;;;;;4173735;28;20055;-63
2023/04/09 13:23:40;;;;;;;18.10;14.32;;;17.90;63.50;;;;;;4150122;28;19931;-70
2023/04/09 13:26:23;;;;;;;16.05;12.55;;;17.90;64.30;;;;;;4157725;28;20091;-68
2023/04/09 13:29:04;;;;;;;15.63;12.38;;;17.80;62.90;;;;;;4158264;28;20049;-64
2023/04/09 13:31:45;;;;;;;15.80;9.88;;;17.90;62.30;;;;;;4161506;28;20405;-66
2023/04/09 13:34:26;;;;;;;15.73;12.90;;;17.90;62.70;;;;;;4173266;28;20056;-67
2023/04/09 13:37:07;;;;;;;15.70;11.80;;;17.90;63.90;;;;;;4171955;28;20114;-67
2023/04/09 13:39:47;;;;;;;16.88;13.70;;;17.90;64.20;;;;;;4159078;28;20064;-67
2023/04/09 13:42:30;;;;;;;16.42;13.02;;;18.00;63.10;;;;;;4158992;28;20076;-66
2023/04/09 13:45:11;;;;;;;18.13;13.20;;;18.00;62.00;;;;;;4163222;28;20179;-68
2023/04/09 13:47:52;;;;;;;20.27;12.45;;;18.00;61.90;;;;;;4164755;28;20130;-68
2023/04/09 13:50:33;;;;;;;;;;;18.00;61.60;;;;;;4175068;28;20052;-65